AWG-1

EHMA · Friesland, 荷兰

罗盘
风向 的 风向 240° 直升机
风: 26 kt, 6 beaufort
0 ft 1.000 2.000 3.000 4.000 5.000
Cloud Cloud
FEW 1.300
Cloud Cloud Cloud Cloud
SCT 1.700
Cloud Cloud Cloud Cloud Cloud Cloud
BKN 2.100
METAR EHMA 231355Z AUTO 24026KT 9999 FEW013 SCT017 BKN021 07/03 Q0987

METAR AWG-1 - EHMA

AWG-1是,荷兰中的直升机场。 该机场位于纬度53,49194和经度5,94028。 本场的ICAO机场代码为EHMA。 机场在Amsterdam FIR中。

该航空气象观测是针对AWG-1在2024年2月23日 14:55, 当地时间进行的。

机场观察

风向为240°,速度为26 kt。

可见度为10 km 或者更多。

有几云在1.300 ft的高度, 疏云,零星散落的云朵在1.700 ft的高度 和 碎云在2.100 ft的高度。 破损或更高的上限为2.100 ft。

温度为7 °C,阵风为0 °C。 露点为3 °C,相对湿度为76%。 海平面上的气压为987 hPa (QNH)。

白天

今天,太阳从07:38升起,在18:00降落。 这适用于AWG-1,世界夏令时可能有所不同。 当地时间与世界标准时间之间的时差为+1 小时。 当前,没有夏令时有效。

公司介绍

我们没有关于这个机场的公司信息。

体会

到Vliegles.nl去找飞行课程,跳伞和其他飞行体验。 浏览页面,了解AWG-1附近所有可用的活动。 你也可以使用搜索功能来寻找你所在地附近的特定飞行课程、跳伞或其他飞行体验。

乌云

1.300 ft FEW 几云
1.700 ft SCT 疏云,零星散落的云朵
2.100 ft BKN 碎云

温度 & 天气

温度 7 °C
露点 3 °C
相对湿度 76%
风寒 0 °C
Kp-index 0 (0-9)

白天

日出
07:38
中午
12:49
日落
18:00 (2:56)

小工具

你想在你的网站上有一个关于AWG-1的当前航空天气(METAR)的小部件吗?

显示HTML代码
?>